createdAt,value
2022-12-18T00:00:10.844Z,14.87
2022-12-18T00:02:40.640Z,14.97
2022-12-18T00:05:09.619Z,13.90
2022-12-18T00:07:39.286Z,14.67
2022-12-18T00:10:08.558Z,14.13
2022-12-18T00:12:36.428Z,15.50
2022-12-18T00:15:04.929Z,13.37
2022-12-18T00:17:32.767Z,12.80
2022-12-18T00:20:02.264Z,16.47
2022-12-18T00:22:30.141Z,14.53
2022-12-18T00:24:59.526Z,12.20
2022-12-18T00:27:29.163Z,12.40
2022-12-18T00:29:58.258Z,10.93
2022-12-18T00:32:26.501Z,12.03
2022-12-18T00:34:55.456Z,9.87
2022-12-18T00:37:25.032Z,10.97
2022-12-18T00:39:53.190Z,13.33
2022-12-18T00:42:39.907Z,11.40
2022-12-18T00:45:12.638Z,10.87
2022-12-18T00:47:41.543Z,10.90
2022-12-18T00:50:10.630Z,9.17
2022-12-18T00:52:40.000Z,8.93
2022-12-18T00:55:08.994Z,10.10
2022-12-18T00:57:36.922Z,9.87
2022-12-18T01:00:06.042Z,9.47
2022-12-18T01:02:35.086Z,7.10
2022-12-18T01:05:03.349Z,8.03
2022-12-18T01:07:31.618Z,9.07
2022-12-18T01:10:02.368Z,8.77
2022-12-18T01:12:30.496Z,7.77
2022-12-18T01:14:58.694Z,9.10
2022-12-18T01:17:27.031Z,9.03
2022-12-18T01:19:55.951Z,7.43
2022-12-18T01:22:23.956Z,8.03
2022-12-18T01:24:52.009Z,7.60
2022-12-18T01:27:21.380Z,6.60
2022-12-18T01:29:49.263Z,8.03
2022-12-18T01:32:17.300Z,7.13
2022-12-18T01:34:45.582Z,7.90
2022-12-18T01:37:13.816Z,8.33
2022-12-18T01:39:41.983Z,6.70
2022-12-18T01:42:14.583Z,7.33
2022-12-18T01:45:08.097Z,7.07
2022-12-18T01:47:40.452Z,6.10
2022-12-18T01:50:12.400Z,6.30
2022-12-18T01:52:43.019Z,5.87
2022-12-18T01:55:13.019Z,7.60
2022-12-18T01:57:42.276Z,5.90
2022-12-18T02:00:14.677Z,6.43
2022-12-18T02:02:43.688Z,6.17
2022-12-18T02:05:13.681Z,5.97
2022-12-18T02:07:52.020Z,7.10
2022-12-18T02:10:26.810Z,5.20
2022-12-18T02:13:02.629Z,5.13
2022-12-18T02:15:37.085Z,5.77
2022-12-18T02:18:11.413Z,6.40
2022-12-18T02:20:46.239Z,5.33
2022-12-18T02:23:26.520Z,5.70
2022-12-18T02:26:13.957Z,4.93
2022-12-18T02:28:46.445Z,5.13
2022-12-18T02:31:19.222Z,4.83
2022-12-18T02:33:47.698Z,4.50
2022-12-18T02:36:17.664Z,5.50
2022-12-18T02:38:47.744Z,5.73
2022-12-18T02:41:20.576Z,4.57
2022-12-18T02:43:49.474Z,4.50
2022-12-18T02:46:32.329Z,5.33
2022-12-18T02:49:09.428Z,4.20
2022-12-18T02:51:46.496Z,4.17
2022-12-18T02:54:25.734Z,4.83
2022-12-18T02:57:00.169Z,5.20
2022-12-18T02:59:34.650Z,4.83
2022-12-18T03:02:09.623Z,4.53
2022-12-18T03:04:42.017Z,4.73
2022-12-18T03:07:17.857Z,5.47
2022-12-18T03:09:49.823Z,4.13
2022-12-18T03:12:26.861Z,4.77
2022-12-18T03:15:00.341Z,4.73
2022-12-18T03:17:32.468Z,4.80
2022-12-18T03:20:10.980Z,5.27
2022-12-18T03:22:40.413Z,4.00
2022-12-18T03:25:11.787Z,3.50
2022-12-18T03:27:47.722Z,4.47
2022-12-18T03:30:17.310Z,5.57
2022-12-18T03:32:50.073Z,3.40
2022-12-18T03:35:23.919Z,3.90
2022-12-18T03:37:51.870Z,3.63
2022-12-18T03:40:20.454Z,3.43
2022-12-18T03:42:53.715Z,3.57
2022-12-18T03:45:27.296Z,4.43
2022-12-18T03:48:03.387Z,3.63
2022-12-18T03:50:39.290Z,4.97
2022-12-18T03:53:20.322Z,4.77
2022-12-18T03:55:50.533Z,3.40
2022-12-18T03:58:22.627Z,4.33
2022-12-18T04:00:52.905Z,4.30
2022-12-18T04:03:26.189Z,2.90
2022-12-18T04:05:57.552Z,4.47
2022-12-18T04:08:28.012Z,4.70
2022-12-18T04:10:55.804Z,3.60
2022-12-18T04:13:33.931Z,3.73
2022-12-18T04:16:02.415Z,3.27
2022-12-18T04:18:30.760Z,3.97
2022-12-18T04:20:58.619Z,3.50
2022-12-18T04:23:26.499Z,4.00
2022-12-18T04:25:54.599Z,3.87
2022-12-18T04:28:22.947Z,4.80
2022-12-18T04:30:52.513Z,5.03
2022-12-18T04:33:20.692Z,3.93
2022-12-18T04:35:48.583Z,3.50
2022-12-18T04:38:16.869Z,3.73
2022-12-18T04:40:45.761Z,3.57
2022-12-18T04:43:13.909Z,3.37
2022-12-18T04:45:42.086Z,3.67
2022-12-18T04:48:11.438Z,4.77
2022-12-18T04:50:39.527Z,3.60
2022-12-18T04:53:09.284Z,3.70
2022-12-18T04:55:38.181Z,6.13
2022-12-18T04:58:06.972Z,3.97
2022-12-18T05:00:34.913Z,4.77
2022-12-18T05:03:03.325Z,3.20
2022-12-18T05:05:33.194Z,3.83
2022-12-18T05:08:03.268Z,4.17
2022-12-18T05:10:37.801Z,3.70
2022-12-18T05:13:06.512Z,3.93
2022-12-18T05:15:35.400Z,3.80
2022-12-18T05:18:04.372Z,3.80
2022-12-18T05:20:34.047Z,4.30
2022-12-18T05:23:02.032Z,3.63
2022-12-18T05:25:29.937Z,3.33
2022-12-18T05:27:58.109Z,3.10
2022-12-18T05:30:26.743Z,4.47
2022-12-18T05:32:54.676Z,3.57
2022-12-18T05:35:23.197Z,4.77
2022-12-18T05:37:53.124Z,4.20
2022-12-18T05:40:21.236Z,4.83
2022-12-18T05:42:50.073Z,4.43
2022-12-18T05:45:18.239Z,3.40
2022-12-18T05:47:46.085Z,3.30
2022-12-18T05:50:15.093Z,4.07
2022-12-18T05:52:43.097Z,5.50
2022-12-18T05:55:12.683Z,3.53
2022-12-18T05:57:40.499Z,3.57
2022-12-18T06:00:09.897Z,4.17
2022-12-18T06:02:38.093Z,4.40
2022-12-18T06:05:08.293Z,3.80
2022-12-18T06:07:36.575Z,4.23
2022-12-18T06:10:04.810Z,4.27
2022-12-18T06:12:35.168Z,4.10
2022-12-18T06:15:03.038Z,4.13
2022-12-18T06:17:31.408Z,4.37
2022-12-18T06:19:59.568Z,4.27
2022-12-18T06:22:29.281Z,4.83
2022-12-18T06:24:57.656Z,4.90
2022-12-18T06:27:26.156Z,5.43
2022-12-18T06:29:55.604Z,5.13
2022-12-18T06:32:23.599Z,4.53
2022-12-18T06:34:52.626Z,4.83
2022-12-18T06:37:20.612Z,4.63
2022-12-18T06:39:48.571Z,4.50
2022-12-18T06:42:16.667Z,4.23
2022-12-18T06:44:44.937Z,3.97
2022-12-18T06:47:14.603Z,5.60
2022-12-18T06:49:42.366Z,5.37
2022-12-18T06:52:10.452Z,5.53
2022-12-18T06:54:38.628Z,6.27
2022-12-18T06:57:07.519Z,6.73
2022-12-18T06:59:35.297Z,6.10
2022-12-18T07:02:03.204Z,6.73
2022-12-18T07:04:33.708Z,6.20
2022-12-18T07:07:01.562Z,5.40
2022-12-18T07:09:29.722Z,5.80
2022-12-18T07:11:57.672Z,5.93
2022-12-18T07:14:25.881Z,4.93
2022-12-18T07:16:55.376Z,5.10
2022-12-18T07:19:23.424Z,5.53
2022-12-18T07:21:53.827Z,5.57
2022-12-18T07:24:21.557Z,4.57
2022-12-18T07:26:49.656Z,6.37
2022-12-18T07:29:17.774Z,6.27
2022-12-18T07:31:46.063Z,5.33
2022-12-18T07:34:14.732Z,5.80
2022-12-18T07:36:43.092Z,6.03
2022-12-18T07:39:12.923Z,8.90
2022-12-18T07:41:46.675Z,22.03
2022-12-18T07:44:15.168Z,10.30
2022-12-18T07:46:43.152Z,6.17
2022-12-18T07:49:12.694Z,6.10
2022-12-18T07:51:41.843Z,6.00
2022-12-18T07:54:09.847Z,6.83
2022-12-18T07:56:39.843Z,6.47
2022-12-18T07:59:07.814Z,5.60
2022-12-18T08:01:36.179Z,5.53
2022-12-18T08:04:04.349Z,4.60
2022-12-18T08:06:32.902Z,5.60
2022-12-18T08:09:00.981Z,5.73
2022-12-18T08:11:30.028Z,6.17
2022-12-18T08:14:00.063Z,5.57
2022-12-18T08:16:28.944Z,5.37
2022-12-18T08:18:58.195Z,4.77
2022-12-18T08:21:28.352Z,6.10
2022-12-18T08:23:58.153Z,5.70
2022-12-18T08:26:27.535Z,4.57
2022-12-18T08:28:56.338Z,5.47
2022-12-18T08:31:26.862Z,4.67
2022-12-18T08:33:55.531Z,5.37
2022-12-18T08:36:24.365Z,5.07
2022-12-18T08:38:53.945Z,4.67
2022-12-18T08:41:22.347Z,6.80
2022-12-18T08:44:08.257Z,4.60
2022-12-18T08:46:40.201Z,4.60
2022-12-18T08:49:09.090Z,5.73
2022-12-18T08:51:37.547Z,4.70
2022-12-18T08:54:06.516Z,4.67
2022-12-18T08:56:35.191Z,4.60
2022-12-18T08:59:05.389Z,4.67
2022-12-18T09:01:34.275Z,6.43
2022-12-18T09:04:05.029Z,5.13
2022-12-18T09:06:34.593Z,5.20
2022-12-18T09:09:02.387Z,6.00
2022-12-18T09:11:32.300Z,5.53
2022-12-18T09:14:02.159Z,5.03
2022-12-18T09:16:33.077Z,5.10
2022-12-18T09:19:01.729Z,6.47
2022-12-18T09:21:34.283Z,5.50
2022-12-18T09:24:07.550Z,5.60
2022-12-18T09:26:36.549Z,6.27
2022-12-18T09:29:04.809Z,6.07
2022-12-18T09:31:32.784Z,4.80
2022-12-18T09:34:00.661Z,4.93
2022-12-18T09:36:29.230Z,5.90
2022-12-18T09:39:02.653Z,6.07
2022-12-18T09:41:54.480Z,5.53
2022-12-18T09:44:27.114Z,6.47
2022-12-18T09:47:02.369Z,4.80
2022-12-18T09:49:34.180Z,5.97
2022-12-18T09:52:07.213Z,5.37
2022-12-18T09:54:41.436Z,7.03
2022-12-18T09:57:15.976Z,6.70
2022-12-18T09:59:46.456Z,6.13
2022-12-18T10:02:19.555Z,5.27
2022-12-18T10:04:55.448Z,4.33
2022-12-18T10:07:30.560Z,6.37
2022-12-18T10:10:06.594Z,6.27
2022-12-18T10:12:43.455Z,4.97
2022-12-18T10:15:17.994Z,5.13
2022-12-18T10:17:52.927Z,4.83
2022-12-18T10:20:27.263Z,5.07
2022-12-18T10:23:02.418Z,5.50
2022-12-18T10:25:37.324Z,4.73
2022-12-18T10:28:12.894Z,5.43
2022-12-18T10:30:42.105Z,4.33
2022-12-18T10:33:14.073Z,4.87
2022-12-18T10:35:44.180Z,5.70
2022-12-18T10:38:25.153Z,6.07
2022-12-18T10:40:56.843Z,5.80
2022-12-18T10:43:27.317Z,5.70
2022-12-18T10:46:07.629Z,4.93
2022-12-18T10:48:38.799Z,4.83
2022-12-18T10:51:12.377Z,6.03
2022-12-18T10:53:44.059Z,4.47
2022-12-18T10:56:14.162Z,5.30
2022-12-18T10:58:43.376Z,4.53
2022-12-18T11:01:14.077Z,4.67
2022-12-18T11:03:44.392Z,4.40
2022-12-18T11:06:13.917Z,4.20
2022-12-18T11:08:43.760Z,4.57
2022-12-18T11:11:22.971Z,4.53
2022-12-18T11:14:02.669Z,4.17
2022-12-18T11:16:34.141Z,4.53
2022-12-18T11:19:21.705Z,4.93
2022-12-18T11:21:50.962Z,4.30
2022-12-18T11:24:24.804Z,4.90
2022-12-18T11:26:59.514Z,4.43
2022-12-18T11:29:34.286Z,4.47
2022-12-18T11:32:32.258Z,5.50
2022-12-18T11:35:06.103Z,9.70
2022-12-18T11:37:35.777Z,9.93
2022-12-18T11:40:09.115Z,7.97
2022-12-18T11:42:46.198Z,10.53
2022-12-18T11:45:27.969Z,6.40
2022-12-18T11:48:03.490Z,4.93
2022-12-18T11:50:43.733Z,5.97
2022-12-18T11:53:13.359Z,6.23
2022-12-18T11:55:48.439Z,6.50
2022-12-18T11:58:31.348Z,8.07
2022-12-18T12:01:16.117Z,7.10
2022-12-18T12:04:24.731Z,7.17
2022-12-18T12:07:03.418Z,8.73
2022-12-18T12:09:42.108Z,4.60
2022-12-18T12:12:27.021Z,6.97
2022-12-18T12:15:06.712Z,5.20
2022-12-18T12:17:40.517Z,7.53
2022-12-18T12:20:18.017Z,6.60
2022-12-18T12:22:54.318Z,6.33
2022-12-18T12:25:33.595Z,5.60
2022-12-18T12:28:15.641Z,4.83
2022-12-18T12:30:58.028Z,5.00
2022-12-18T12:33:38.759Z,4.80
2022-12-18T12:36:19.746Z,6.00
2022-12-18T12:38:52.532Z,7.03
2022-12-18T12:41:41.436Z,5.27
2022-12-18T12:44:17.141Z,4.83
2022-12-18T12:46:50.225Z,5.27
2022-12-18T12:49:20.371Z,7.00
2022-12-18T12:51:54.783Z,4.33
2022-12-18T12:54:26.914Z,4.30
2022-12-18T12:57:02.171Z,4.43
2022-12-18T12:59:41.157Z,6.40
2022-12-18T13:02:20.499Z,6.53
2022-12-18T13:04:55.751Z,4.70
2022-12-18T13:07:31.494Z,5.40
2022-12-18T13:10:27.199Z,7.60
2022-12-18T13:12:59.455Z,5.90
2022-12-18T13:15:41.232Z,5.13
2022-12-18T13:18:20.430Z,5.07
2022-12-18T13:23:43.633Z,12.67
2022-12-18T13:26:33.298Z,10.90
2022-12-18T13:29:03.356Z,8.53
2022-12-18T13:32:14.706Z,8.30
2022-12-18T13:34:47.044Z,7.97
2022-12-18T13:37:44.146Z,7.93
2022-12-18T13:40:59.697Z,7.27
2022-12-18T13:43:45.037Z,8.23
2022-12-18T13:46:22.558Z,5.97
2022-12-18T13:48:54.379Z,8.43
2022-12-18T13:51:25.690Z,5.77
2022-12-18T13:53:56.701Z,6.93
2022-12-18T13:56:28.580Z,9.47
2022-12-18T13:59:22.663Z,6.83
2022-12-18T14:01:56.757Z,5.37
2022-12-18T14:04:30.461Z,4.97
2022-12-18T14:07:04.934Z,6.03
2022-12-18T14:09:38.917Z,3.13
2022-12-18T14:12:27.085Z,3.83
2022-12-18T14:14:55.614Z,5.60
2022-12-18T14:17:25.797Z,4.60
2022-12-18T14:19:54.228Z,4.23
2022-12-18T14:22:28.864Z,6.23
2022-12-18T14:25:17.136Z,5.03
2022-12-18T14:27:47.759Z,4.50
2022-12-18T14:30:29.920Z,5.80
2022-12-18T14:33:05.915Z,4.90
2022-12-18T14:35:34.763Z,4.73
2022-12-18T14:38:23.287Z,4.73
2022-12-18T14:40:55.252Z,6.00
2022-12-18T14:43:23.705Z,4.63
2022-12-18T14:45:52.785Z,4.80
2022-12-18T14:48:24.192Z,6.47
2022-12-18T14:51:02.084Z,5.63
2022-12-18T14:53:40.923Z,5.40
2022-12-18T14:56:18.095Z,5.37
2022-12-18T14:58:51.286Z,10.37
2022-12-18T15:01:25.263Z,4.80
2022-12-18T15:03:54.075Z,4.13
2022-12-18T15:06:29.602Z,4.20
2022-12-18T15:08:59.892Z,4.97
2022-12-18T15:11:36.753Z,4.33
2022-12-18T15:14:40.209Z,5.07
2022-12-18T15:17:17.447Z,6.10
2022-12-18T15:19:47.017Z,4.83
2022-12-18T15:22:28.159Z,5.00
2022-12-18T15:24:59.125Z,4.87
2022-12-18T15:27:34.569Z,5.47
2022-12-18T15:30:20.529Z,6.07
2022-12-18T15:32:50.049Z,6.17
2022-12-18T15:35:21.404Z,6.20
2022-12-18T15:37:50.206Z,5.47
2022-12-18T15:40:22.955Z,6.20
2022-12-18T15:43:10.653Z,7.50
2022-12-18T15:45:38.615Z,5.60
2022-12-18T15:48:17.571Z,6.07
2022-12-18T15:50:45.631Z,6.73
2022-12-18T15:53:14.517Z,6.90
2022-12-18T15:56:01.576Z,6.10
2022-12-18T15:58:29.719Z,5.53
2022-12-18T16:01:01.374Z,6.20
2022-12-18T16:03:29.757Z,6.03
2022-12-18T16:05:59.447Z,6.83
2022-12-18T16:08:28.111Z,6.03
2022-12-18T16:10:57.526Z,7.07
2022-12-18T16:13:25.795Z,6.33
2022-12-18T16:15:53.697Z,7.53
2022-12-18T16:18:21.752Z,6.77
2022-12-18T16:20:49.586Z,7.53
2022-12-18T16:23:17.777Z,8.00
2022-12-18T16:25:45.734Z,6.87
2022-12-18T16:28:17.382Z,7.03
2022-12-18T16:30:45.951Z,6.53
2022-12-18T16:33:14.841Z,7.57
2022-12-18T16:35:42.766Z,7.90
2022-12-18T16:38:11.652Z,6.60
2022-12-18T16:41:00.874Z,5.93
2022-12-18T16:43:30.462Z,6.70
2022-12-18T16:46:00.965Z,7.13
2022-12-18T16:48:29.471Z,6.73
2022-12-18T16:51:03.578Z,7.17
2022-12-18T16:53:32.563Z,8.03
2022-12-18T16:56:01.390Z,6.20
2022-12-18T16:58:31.033Z,8.00
2022-12-18T17:00:58.784Z,7.10
2022-12-18T17:03:27.150Z,7.53
2022-12-18T17:05:55.146Z,8.50
2022-12-18T17:08:23.160Z,9.07
2022-12-18T17:10:51.039Z,8.37
2022-12-18T17:13:22.711Z,8.10
2022-12-18T17:15:55.381Z,8.60
2022-12-18T17:18:25.924Z,9.07
2022-12-18T17:20:53.651Z,11.33
2022-12-18T17:23:21.462Z,8.80
2022-12-18T17:25:49.240Z,8.40
2022-12-18T17:28:18.215Z,8.77
2022-12-18T17:30:47.673Z,8.27
2022-12-18T17:33:16.993Z,9.93
2022-12-18T17:35:45.012Z,10.60
2022-12-18T17:38:15.563Z,12.40
2022-12-18T17:40:46.592Z,11.23
2022-12-18T17:43:14.652Z,10.57
2022-12-18T17:45:43.535Z,10.23
2022-12-18T17:48:11.822Z,10.97
2022-12-18T17:50:41.809Z,11.67
2022-12-18T17:53:09.768Z,11.07
2022-12-18T17:55:37.466Z,11.27
2022-12-18T17:58:05.479Z,11.90
2022-12-18T18:00:33.707Z,12.83
2022-12-18T18:03:02.629Z,12.13
2022-12-18T18:05:30.961Z,13.30
2022-12-18T18:08:00.367Z,12.07
2022-12-18T18:10:28.574Z,11.03
2022-12-18T18:13:36.689Z,11.70
2022-12-18T18:16:06.804Z,12.50
2022-12-18T18:18:35.716Z,12.07
2022-12-18T18:21:06.627Z,13.63
2022-12-18T18:23:37.617Z,12.37
2022-12-18T18:26:10.683Z,14.00
2022-12-18T18:28:38.743Z,13.37
2022-12-18T18:31:07.785Z,12.10
2022-12-18T18:33:35.785Z,13.80
2022-12-18T18:36:04.227Z,12.73
2022-12-18T18:38:32.502Z,13.13
2022-12-18T18:41:04.183Z,11.77
2022-12-18T18:43:32.753Z,12.90
2022-12-18T18:46:02.220Z,14.40
2022-12-18T18:48:33.018Z,16.77
2022-12-18T18:51:05.010Z,15.73
2022-12-18T18:53:36.722Z,16.20
2022-12-18T18:56:45.419Z,13.57
2022-12-18T18:58:56.869Z,14.60
2022-12-18T19:01:26.060Z,15.67
2022-12-18T19:03:55.022Z,14.23
2022-12-18T19:06:25.351Z,15.93
2022-12-18T19:08:54.738Z,16.53
2022-12-18T19:11:43.858Z,24.83
2022-12-18T19:14:14.674Z,20.67
2022-12-18T19:16:43.682Z,17.43
2022-12-18T19:19:12.288Z,16.30
2022-12-18T19:21:40.377Z,15.80
2022-12-18T19:24:09.317Z,16.73
2022-12-18T19:26:39.777Z,16.77
2022-12-18T19:29:10.896Z,17.13
2022-12-18T19:31:39.265Z,18.50
2022-12-18T19:34:08.345Z,17.67
2022-12-18T19:36:38.160Z,18.03
2022-12-18T19:39:10.545Z,16.23
2022-12-18T19:41:41.087Z,15.70
2022-12-18T19:44:09.572Z,15.40
2022-12-18T19:46:41.635Z,16.87
2022-12-18T19:49:10.078Z,17.00
2022-12-18T19:51:38.400Z,15.73
2022-12-18T19:54:07.139Z,16.83
2022-12-18T19:56:36.649Z,16.73
2022-12-18T19:59:06.572Z,17.60
2022-12-18T20:01:34.953Z,16.73
2022-12-18T20:04:03.242Z,16.00
2022-12-18T20:06:34.018Z,15.73
2022-12-18T20:09:04.058Z,15.83
2022-12-18T20:11:32.893Z,17.90
2022-12-18T20:14:01.033Z,16.43
2022-12-18T20:16:31.142Z,17.23
2022-12-18T20:18:59.748Z,16.60
2022-12-18T20:21:28.156Z,16.47
2022-12-18T20:23:56.126Z,17.67
2022-12-18T20:26:24.947Z,15.90
2022-12-18T20:28:53.605Z,13.97
2022-12-18T20:31:21.606Z,16.90
2022-12-18T20:33:53.377Z,20.73
2022-12-18T20:36:25.972Z,15.47
2022-12-18T20:38:59.251Z,16.73
2022-12-18T20:41:33.523Z,17.07
2022-12-18T20:44:06.229Z,17.17
2022-12-18T20:46:39.174Z,15.63
2022-12-18T20:49:08.456Z,17.47
2022-12-18T20:51:37.517Z,16.93
2022-12-18T20:54:09.139Z,17.30
2022-12-18T20:56:39.512Z,17.30
2022-12-18T20:59:07.635Z,16.43
2022-12-18T21:01:35.583Z,16.90
2022-12-18T21:04:06.086Z,18.20
2022-12-18T21:06:35.765Z,16.53
2022-12-18T21:09:03.619Z,15.77
2022-12-18T21:11:50.780Z,17.13
2022-12-18T21:14:20.490Z,16.93
2022-12-18T21:16:48.842Z,17.73
2022-12-18T21:19:19.515Z,16.47
2022-12-18T21:21:48.784Z,17.83
2022-12-18T21:24:17.066Z,16.17
2022-12-18T21:26:46.307Z,15.13
2022-12-18T21:29:19.883Z,16.97
2022-12-18T21:31:50.096Z,15.93
2022-12-18T21:34:20.086Z,16.37
2022-12-18T21:36:50.535Z,16.93
2022-12-18T21:39:19.070Z,16.97
2022-12-18T21:42:06.900Z,17.03
2022-12-18T21:44:36.300Z,17.20
2022-12-18T21:47:21.908Z,15.73
2022-12-18T21:49:52.772Z,17.80
2022-12-18T21:52:29.504Z,17.20
2022-12-18T21:55:09.642Z,17.40
2022-12-18T21:57:39.033Z,17.37
2022-12-18T22:00:09.272Z,16.73
2022-12-18T22:02:39.520Z,16.00
2022-12-18T22:05:08.280Z,16.90
2022-12-18T22:07:38.550Z,17.70
2022-12-18T22:10:07.334Z,17.53
2022-12-18T22:12:43.705Z,20.07
2022-12-18T22:15:19.203Z,15.73
2022-12-18T22:17:50.769Z,19.27
2022-12-18T22:20:19.983Z,16.37
2022-12-18T22:22:51.830Z,16.17
2022-12-18T22:25:20.431Z,17.67
2022-12-18T22:28:08.181Z,18.60
2022-12-18T22:30:35.521Z,17.03
2022-12-18T22:33:03.955Z,16.73
2022-12-18T22:35:32.089Z,18.27
2022-12-18T22:38:01.373Z,17.13
2022-12-18T22:40:29.643Z,15.93
2022-12-18T22:42:57.864Z,16.10
2022-12-18T22:45:26.526Z,19.27
2022-12-18T22:47:54.654Z,16.60
2022-12-18T22:50:22.466Z,18.33
2022-12-18T22:52:50.398Z,19.27
2022-12-18T22:55:20.762Z,16.13
2022-12-18T22:57:49.282Z,17.93
2022-12-18T23:00:23.773Z,17.40
2022-12-18T23:02:59.236Z,17.77
2022-12-18T23:05:29.157Z,16.73
2022-12-18T23:07:56.984Z,16.60
2022-12-18T23:10:26.791Z,18.13
2022-12-18T23:12:55.082Z,17.67
2022-12-18T23:15:28.491Z,16.97
2022-12-18T23:17:58.163Z,16.73
2022-12-18T23:20:26.376Z,16.73
2022-12-18T23:22:54.364Z,16.43
2022-12-18T23:25:22.150Z,17.50
2022-12-18T23:27:52.340Z,16.90
2022-12-18T23:30:39.232Z,18.90
2022-12-18T23:33:07.016Z,16.33
2022-12-18T23:35:37.809Z,18.07
2022-12-18T23:38:05.652Z,16.50
2022-12-18T23:40:35.418Z,17.27
2022-12-18T23:43:05.110Z,17.03
2022-12-18T23:45:33.206Z,16.77
2022-12-18T23:48:03.268Z,16.23
2022-12-18T23:50:31.051Z,17.57
2022-12-18T23:53:05.275Z,17.10
2022-12-18T23:55:38.571Z,15.83
2022-12-18T23:58:08.689Z,15.90
